Time;durP1;ratioP1;P1;durP2;ratioP2;P2;SDS_P1;SDS_P2;PMS_P1;PMS_P2;Temp;Humidity;BMP_temperature;BMP_pressure;BME280_temperature;BME280_humidity;BME280_pressure;Samples;Min_cycle;Max_cycle;Signal;HPM_P1;HPM_P2
2021/05/31 00:00:58;;;;;;;13.90;13.10;;;24.00;55.60;;;;;;3626707;39;20471;-52
2021/05/31 00:03:28;;;;;;;13.00;12.40;;;24.00;55.60;;;;;;3628438;39;20474;-49
2021/05/31 00:05:55;;;;;;;13.80;13.00;;;24.00;55.60;;;;;;3626776;39;20491;-51
2021/05/31 00:08:22;;;;;;;12.63;12.03;;;24.00;55.70;;;;;;3626576;39;20486;-49
2021/05/31 00:10:51;;;;;;;13.40;12.70;;;24.00;55.70;;;;;;3626793;39;20547;-50
2021/05/31 00:13:19;;;;;;;13.23;12.33;;;24.00;55.70;;;;;;3627214;39;20467;-49
2021/05/31 00:15:47;;;;;;;12.23;11.63;;;24.00;55.70;;;;;;3610897;39;20486;-49
2021/05/31 00:18:16;;;;;;;14.03;13.17;;;24.00;55.70;;;;;;3618548;39;20478;-49
2021/05/31 00:20:45;;;;;;;12.93;12.33;;;24.00;55.70;;;;;;3627913;39;20563;-51
2021/05/31 00:23:12;;;;;;;13.23;12.53;;;24.00;55.70;;;;;;3628436;39;20485;-51
2021/05/31 00:25:39;;;;;;;13.37;12.67;;;24.10;55.80;;;;;;3628336;39;20482;-54
2021/05/31 00:28:15;;;;;;;12.43;11.83;;;24.10;55.80;;;;;;3619055;39;20497;-50
2021/05/31 00:30:43;;;;;;;12.67;12.07;;;24.10;55.80;;;;;;3618135;39;20502;-49
2021/05/31 00:33:10;;;;;;;12.67;11.97;;;24.10;55.70;;;;;;3618732;39;20475;-49
2021/05/31 00:35:39;;;;;;;12.67;12.07;;;24.10;55.80;;;;;;3618216;39;20479;-49
2021/05/31 00:38:14;;;;;;;12.37;11.77;;;24.10;55.70;;;;;;3608213;39;20531;-50
2021/05/31 00:40:42;;;;;;;12.80;12.10;;;24.10;55.70;;;;;;3608150;39;20468;-49
2021/05/31 00:43:09;;;;;;;13.30;12.60;;;24.10;55.70;;;;;;3600219;39;20464;-49
2021/05/31 00:45:42;;;;;;;12.17;11.57;;;24.20;55.80;;;;;;3617760;39;20561;-50
2021/05/31 00:48:09;;;;;;;12.93;12.33;;;24.20;55.80;;;;;;3608074;39;20854;-54
2021/05/31 00:50:36;;;;;;;13.20;12.20;;;24.20;55.80;;;;;;3607886;39;20500;-51
2021/05/31 00:53:03;;;;;;;13.10;12.37;;;24.20;55.70;;;;;;3620493;39;20718;-50
2021/05/31 00:55:31;;;;;;;12.27;11.57;;;24.20;55.70;;;;;;3628442;39;20522;-50
2021/05/31 00:57:59;;;;;;;12.50;11.90;;;24.20;55.70;;;;;;3617469;39;20494;-51
2021/05/31 01:00:27;;;;;;;12.70;12.00;;;24.20;55.70;;;;;;3617208;39;20472;-50
2021/05/31 01:02:56;;;;;;;13.03;12.43;;;24.20;55.70;;;;;;3617919;39;20567;-50
2021/05/31 01:05:24;;;;;;;13.27;12.50;;;24.20;55.70;;;;;;3618471;39;20474;-50
2021/05/31 01:07:57;;;;;;;13.10;12.30;;;24.20;55.70;;;;;;3627814;39;20721;-50
2021/05/31 01:10:32;;;;;;;13.00;12.37;;;24.20;55.70;;;;;;3628778;39;20583;-50
2021/05/31 01:13:03;;;;;;;12.67;11.97;;;24.30;55.80;;;;;;3628423;39;20481;-50
2021/05/31 01:15:33;;;;;;;12.80;12.20;;;24.30;55.80;;;;;;3628742;39;20470;-50
2021/05/31 01:18:05;;;;;;;12.63;11.93;;;24.30;55.80;;;;;;3627709;39;20482;-49
2021/05/31 01:20:53;;;;;;;12.50;11.80;;;24.30;55.80;;;;;;3628534;39;20471;-51
2021/05/31 01:23:24;;;;;;;12.90;12.20;;;24.30;55.80;;;;;;3627986;39;20941;-50
2021/05/31 01:25:58;;;;;;;12.77;12.10;;;24.30;55.80;;;;;;3628336;39;20491;-49
2021/05/31 01:28:54;;;;;;;13.50;12.80;;;24.30;55.80;;;;;;3628006;39;20490;-53
2021/05/31 01:31:24;;;;;;;12.93;12.13;;;24.40;55.80;;;;;;3619069;39;20949;-53
2021/05/31 01:33:54;;;;;;;13.87;13.00;;;24.40;55.70;;;;;;3599217;39;21092;-49
2021/05/31 01:36:24;;;;;;;14.57;13.67;;;24.40;55.80;;;;;;3598033;40;20469;-49
2021/05/31 01:38:53;;;;;;;13.00;12.30;;;24.40;55.70;;;;;;3596371;40;20478;-50
2021/05/31 01:41:20;;;;;;;13.03;12.33;;;24.40;55.70;;;;;;3596504;40;20481;-49
2021/05/31 01:43:48;;;;;;;13.40;12.80;;;24.40;55.70;;;;;;3597696;40;20481;-49
2021/05/31 01:46:19;;;;;;;12.83;11.93;;;24.40;55.70;;;;;;3602182;39;20480;-50
2021/05/31 01:48:48;;;;;;;13.73;12.50;;;24.40;55.70;;;;;;3594422;40;20842;-49
2021/05/31 01:51:17;;;;;;;12.27;11.67;;;24.40;55.70;;;;;;3606876;39;20516;-50
2021/05/31 01:53:45;;;;;;;12.70;12.10;;;24.40;55.70;;;;;;3607786;39;20480;-51
2021/05/31 01:56:14;;;;;;;12.43;11.73;;;24.40;55.60;;;;;;3606058;39;20473;-52
2021/05/31 01:58:43;;;;;;;12.40;11.80;;;24.50;55.70;;;;;;3607244;39;20488;-49
2021/05/31 02:01:11;;;;;;;12.30;11.70;;;24.50;55.60;;;;;;3607332;39;20545;-49
2021/05/31 02:03:40;;;;;;;12.70;12.10;;;24.50;55.60;;;;;;3608120;39;20476;-50
2021/05/31 02:06:07;;;;;;;12.50;11.90;;;24.50;55.60;;;;;;3606106;39;20889;-50
2021/05/31 02:08:43;;;;;;;12.70;12.00;;;24.50;55.70;;;;;;3607246;39;20468;-49
2021/05/31 02:11:15;;;;;;;12.50;11.90;;;24.50;55.60;;;;;;3608071;39;20469;-50
2021/05/31 02:13:48;;;;;;;12.67;12.07;;;24.50;55.60;;;;;;3598907;39;20464;-49
2021/05/31 02:16:23;;;;;;;12.10;11.60;;;24.50;55.60;;;;;;3601341;39;20477;-49
2021/05/31 02:19:00;;;;;;;12.80;12.20;;;24.50;55.60;;;;;;3597566;40;20914;-51
2021/05/31 02:21:28;;;;;;;13.17;12.47;;;24.50;55.60;;;;;;3587829;40;20467;-49
2021/05/31 02:23:57;;;;;;;12.90;12.30;;;24.50;55.60;;;;;;3587812;40;20464;-50
2021/05/31 02:26:25;;;;;;;13.53;12.83;;;24.50;55.60;;;;;;3594029;39;20888;-50
2021/05/31 02:28:52;;;;;;;13.77;13.07;;;24.50;55.70;;;;;;3607074;39;20481;-50
2021/05/31 02:31:19;;;;;;;13.30;12.60;;;24.50;55.70;;;;;;3606517;39;20488;-51
2021/05/31 02:33:48;;;;;;;13.20;12.60;;;24.50;55.70;;;;;;3613275;39;20496;-50
2021/05/31 02:36:17;;;;;;;12.83;12.13;;;24.50;55.70;;;;;;3607465;39;20590;-55
2021/05/31 02:38:46;;;;;;;12.83;12.13;;;24.60;55.70;;;;;;3607437;39;20472;-51
2021/05/31 02:41:13;;;;;;;12.67;11.97;;;24.60;55.70;;;;;;3611841;39;20824;-50
2021/05/31 02:43:41;;;;;;;13.27;12.47;;;24.60;55.70;;;;;;3611345;39;20491;-50
2021/05/31 02:46:08;;;;;;;13.00;12.40;;;24.60;55.70;;;;;;3617871;39;20479;-50
2021/05/31 02:48:36;;;;;;;13.70;12.90;;;24.60;55.70;;;;;;3618580;39;20479;-50
2021/05/31 02:51:03;;;;;;;13.00;12.40;;;24.60;55.70;;;;;;3617872;39;20714;-50
2021/05/31 02:53:33;;;;;;;12.47;11.90;;;24.60;55.60;;;;;;3617780;39;20519;-52
2021/05/31 02:56:06;;;;;;;12.87;12.27;;;24.60;55.70;;;;;;3617546;39;20486;-50
2021/05/31 02:58:34;;;;;;;13.47;12.87;;;24.60;55.60;;;;;;3607494;39;20468;-51
2021/05/31 03:01:02;;;;;;;13.43;12.63;;;24.60;55.60;;;;;;3610597;39;20564;-50
2021/05/31 03:03:30;;;;;;;13.60;12.90;;;24.60;55.60;;;;;;3616539;39;20479;-50
2021/05/31 03:05:58;;;;;;;14.30;13.60;;;24.60;55.60;;;;;;3608422;39;20602;-50
2021/05/31 03:08:25;;;;;;;13.60;12.90;;;24.60;55.60;;;;;;3607147;39;20859;-49
2021/05/31 03:10:54;;;;;;;13.37;12.77;;;24.60;55.70;;;;;;3609030;39;20479;-52
2021/05/31 03:13:21;;;;;;;13.67;12.97;;;24.60;55.70;;;;;;3619324;39;20888;-49
2021/05/31 03:15:49;;;;;;;13.47;12.87;;;24.60;55.70;;;;;;3626543;39;21049;-51
2021/05/31 03:18:17;;;;;;;14.30;13.50;;;24.60;55.60;;;;;;3625737;39;20474;-49
2021/05/31 03:20:44;;;;;;;14.00;13.30;;;24.60;55.60;;;;;;3625217;39;20510;-53
2021/05/31 03:23:11;;;;;;;14.30;13.70;;;24.70;55.70;;;;;;3616919;39;20468;-51
2021/05/31 03:25:37;;;;;;;14.77;13.67;;;24.70;55.70;;;;;;3616565;39;20479;-52
2021/05/31 03:28:06;;;;;;;14.37;13.73;;;24.70;55.70;;;;;;3616699;39;20483;-50
2021/05/31 03:30:33;;;;;;;14.60;13.90;;;24.70;55.70;;;;;;3616541;39;20474;-50
2021/05/31 03:33:00;;;;;;;13.90;13.30;;;24.70;55.70;;;;;;3620982;39;20491;-50
2021/05/31 03:35:32;;;;;;;14.83;14.03;;;24.70;55.70;;;;;;3626766;39;20479;-51
2021/05/31 03:38:00;;;;;;;14.77;14.07;;;24.70;55.70;;;;;;3626869;39;20474;-50
2021/05/31 03:40:27;;;;;;;14.13;13.50;;;24.70;55.70;;;;;;3627203;39;20570;-49
2021/05/31 03:42:55;;;;;;;13.93;13.20;;;24.70;55.70;;;;;;3625731;39;20462;-50
2021/05/31 03:45:24;;;;;;;15.30;14.40;;;24.70;55.70;;;;;;3626642;39;20794;-50
2021/05/31 03:47:51;;;;;;;15.10;14.30;;;24.70;55.60;;;;;;3628594;39;20522;-50
2021/05/31 03:50:20;;;;;;;14.83;14.13;;;24.80;55.70;;;;;;3628896;39;21088;-50
2021/05/31 03:52:49;;;;;;;14.93;14.13;;;24.80;55.70;;;;;;3625317;39;20467;-50
2021/05/31 03:55:17;;;;;;;14.10;13.50;;;24.80;55.60;;;;;;3627480;39;20510;-50
2021/05/31 03:57:45;;;;;;;14.40;13.70;;;24.80;55.60;;;;;;3628486;39;20466;-51
2021/05/31 04:00:14;;;;;;;13.80;13.10;;;24.80;55.60;;;;;;3627400;39;20590;-50
2021/05/31 04:02:46;;;;;;;14.17;13.57;;;24.80;55.60;;;;;;3625725;39;20474;-51
2021/05/31 04:05:16;;;;;;;14.60;14.00;;;24.80;55.60;;;;;;3627783;39;20812;-50
2021/05/31 04:13:20;;;;;;;15.40;14.70;;;24.90;55.50;;;;;;3621811;39;20511;-49
2021/05/31 04:15:47;;;;;;;15.20;14.50;;;24.90;55.60;;;;;;3585384;40;20581;-50
2021/05/31 04:18:15;;;;;;;15.20;14.50;;;24.90;55.60;;;;;;3576712;40;20486;-50
2021/05/31 04:20:42;;;;;;;15.77;15.00;;;25.00;55.60;;;;;;3575524;40;20572;-50
2021/05/31 04:23:09;;;;;;;14.70;14.00;;;25.00;55.60;;;;;;3576433;40;20491;-51
2021/05/31 04:25:35;;;;;;;15.17;14.57;;;25.00;55.60;;;;;;3574295;40;20494;-50
2021/05/31 04:28:02;;;;;;;15.20;14.60;;;25.00;55.60;;;;;;3575006;40;20490;-52
2021/05/31 04:30:34;;;;;;;15.97;15.17;;;25.00;55.60;;;;;;3576109;40;20523;-49
2021/05/31 04:33:01;;;;;;;15.00;14.30;;;25.00;55.50;;;;;;3585211;40;20894;-46
2021/05/31 04:35:28;;;;;;;15.20;14.50;;;25.00;55.50;;;;;;3584849;40;20486;-46
2021/05/31 04:37:56;;;;;;;15.10;14.40;;;25.10;55.60;;;;;;3585328;40;20524;-46
2021/05/31 04:40:28;;;;;;;14.80;14.10;;;25.10;55.50;;;;;;3585154;40;20501;-46
2021/05/31 04:42:55;;;;;;;15.00;14.30;;;25.10;55.50;;;;;;3574806;40;20487;-47
2021/05/31 04:45:22;;;;;;;14.60;14.00;;;25.20;55.50;;;;;;3573234;40;20495;-46
2021/05/31 04:47:50;;;;;;;14.20;13.60;;;25.20;55.50;;;;;;3574012;40;20483;-51
2021/05/31 04:50:18;;;;;;;15.00;14.30;;;25.20;55.50;;;;;;3573327;40;20518;-50
2021/05/31 04:52:45;;;;;;;15.50;14.80;;;25.30;55.40;;;;;;3573749;40;20856;-49
2021/05/31 04:55:16;;;;;;;14.80;14.20;;;25.30;55.40;;;;;;3571870;40;20467;-50
2021/05/31 04:57:44;;;;;;;15.13;14.43;;;25.30;55.40;;;;;;3572279;40;20887;-50
2021/05/31 05:00:12;;;;;;;14.07;13.47;;;25.30;55.40;;;;;;3572042;40;20486;-50
2021/05/31 05:02:41;;;;;;;14.00;13.40;;;25.30;55.40;;;;;;3582413;40;20482;-50
2021/05/31 05:05:14;;;;;;;15.20;14.40;;;25.40;55.40;;;;;;3582592;40;20484;-49
2021/05/31 05:07:45;;;;;;;15.13;14.43;;;25.40;55.40;;;;;;3582093;40;20480;-50
2021/05/31 05:10:14;;;;;;;15.10;14.40;;;25.40;55.40;;;;;;3581033;40;20777;-50
2021/05/31 05:12:43;;;;;;;14.27;13.67;;;25.40;55.40;;;;;;3570262;40;20856;-50
2021/05/31 05:15:13;;;;;;;14.87;14.20;;;25.40;55.30;;;;;;3578143;40;20486;-53
2021/05/31 05:17:40;;;;;;;14.63;14.00;;;25.40;55.40;;;;;;3578787;40;20470;-50
2021/05/31 05:20:13;;;;;;;14.20;13.60;;;25.40;55.40;;;;;;3578708;40;20470;-51
2021/05/31 05:22:40;;;;;;;15.40;14.70;;;25.40;55.40;;;;;;3576833;40;20506;-50
2021/05/31 05:25:08;;;;;;;14.70;14.10;;;25.40;55.40;;;;;;3566840;40;20486;-50
2021/05/31 05:27:35;;;;;;;14.50;13.90;;;25.40;55.50;;;;;;3577811;40;20807;-50
2021/05/31 05:30:14;;;;;;;14.73;14.03;;;25.30;55.40;;;;;;3567695;40;20744;-50
2021/05/31 05:32:48;;;;;;;14.77;14.17;;;25.30;55.50;;;;;;3578928;40;20487;-50
2021/05/31 05:35:24;;;;;;;14.53;13.90;;;25.30;55.50;;;;;;3587252;40;20473;-51
2021/05/31 05:38:04;;;;;;;14.70;14.10;;;25.30;55.50;;;;;;3586222;40;20480;-50
2021/05/31 05:40:53;;;;;;;14.60;14.00;;;25.30;55.60;;;;;;3584713;40;20485;-53
2021/05/31 05:46:28;;;;;;;14.30;13.60;;;25.30;55.60;;;;;;3576311;40;20497;-52
2021/05/31 05:48:55;;;;;;;14.07;13.47;;;25.20;55.50;;;;;;3583860;40;20488;-51
2021/05/31 05:51:23;;;;;;;13.63;13.03;;;25.20;54.00;;;;;;3580703;40;20488;-51
2021/05/31 05:53:50;;;;;;;13.30;12.80;;;25.10;50.90;;;;;;3572549;40;20602;-50
2021/05/31 05:56:19;;;;;;;14.00;13.30;;;24.90;50.50;;;;;;3571943;40;20567;-52
2021/05/31 05:58:47;;;;;;;14.27;13.57;;;24.80;50.30;;;;;;3569855;40;20545;-50
2021/05/31 06:01:15;;;;;;;13.70;13.00;;;24.60;50.20;;;;;;3571560;40;20834;-50
2021/05/31 06:03:42;;;;;;;14.87;13.90;;;24.50;50.50;;;;;;3587830;39;20492;-50
2021/05/31 06:06:09;;;;;;;14.23;13.27;;;24.40;50.20;;;;;;3587044;39;20863;-49
2021/05/31 06:08:37;;;;;;;13.47;12.63;;;24.30;51.00;;;;;;3586750;39;20464;-50
2021/05/31 06:11:05;;;;;;;13.17;12.53;;;24.30;51.40;;;;;;3586518;39;20789;-50
2021/05/31 06:13:33;;;;;;;13.70;13.00;;;24.40;50.80;;;;;;3590095;39;20519;-50
2021/05/31 06:16:00;;;;;;;13.73;13.03;;;24.30;51.10;;;;;;3589407;39;20520;-50
2021/05/31 06:18:29;;;;;;;13.60;12.80;;;24.30;51.20;;;;;;3588538;39;20488;-51
2021/05/31 06:20:58;;;;;;;13.07;12.47;;;24.30;51.00;;;;;;3587110;39;20492;-53
2021/05/31 06:23:25;;;;;;;13.23;12.53;;;24.30;51.20;;;;;;3588125;39;20492;-50
2021/05/31 06:25:54;;;;;;;11.83;11.43;;;24.30;51.40;;;;;;3588504;39;20581;-51
2021/05/31 06:28:22;;;;;;;11.57;11.00;;;24.30;49.70;;;;;;3588964;39;20765;-50
2021/05/31 06:30:50;;;;;;;12.00;11.40;;;24.20;49.30;;;;;;3588579;39;20485;-51
2021/05/31 06:33:18;;;;;;;12.00;11.60;;;24.20;49.50;;;;;;3588101;39;20580;-50
2021/05/31 06:35:47;;;;;;;12.40;11.90;;;24.30;50.70;;;;;;3587559;39;20230;-53
2021/05/31 06:38:15;;;;;;;12.63;12.13;;;24.40;51.40;;;;;;3586688;39;20477;-50
2021/05/31 06:40:41;;;;;;;12.70;12.10;;;24.40;51.60;;;;;;3585799;39;20910;-51
2021/05/31 06:43:09;;;;;;;13.33;12.40;;;24.50;51.70;;;;;;3582018;39;20799;-50
2021/05/31 06:45:37;;;;;;;13.07;12.27;;;24.60;51.80;;;;;;3584917;39;20507;-49
2021/05/31 06:48:07;;;;;;;13.17;12.40;;;24.60;52.00;;;;;;3588065;39;20581;-53
2021/05/31 06:50:35;;;;;;;12.73;11.93;;;24.70;52.10;;;;;;3589308;39;20491;-50
2021/05/31 06:53:02;;;;;;;12.70;12.20;;;24.70;52.20;;;;;;3598077;39;20478;-49
2021/05/31 06:55:31;;;;;;;12.97;12.47;;;24.70;52.20;;;;;;3606445;39;20752;-49
2021/05/31 06:57:58;;;;;;;12.17;11.37;;;24.70;52.40;;;;;;3606626;39;20573;-50
2021/05/31 07:00:28;;;;;;;11.80;11.30;;;24.70;52.50;;;;;;3606010;39;20479;-50
2021/05/31 07:02:55;;;;;;;12.27;11.73;;;24.70;52.70;;;;;;3605780;39;20478;-50
2021/05/31 07:05:23;;;;;;;12.63;11.70;;;24.70;52.80;;;;;;3606513;39;21252;-50
2021/05/31 07:07:52;;;;;;;13.23;12.30;;;24.80;53.00;;;;;;3607405;39;20490;-52
2021/05/31 07:10:24;;;;;;;12.40;11.70;;;24.80;53.10;;;;;;3605858;39;20470;-49
2021/05/31 07:12:51;;;;;;;12.10;11.50;;;24.80;53.20;;;;;;3603551;39;20486;-51
2021/05/31 07:15:20;;;;;;;12.97;12.07;;;24.80;53.30;;;;;;3605369;39;20482;-50
2021/05/31 07:17:50;;;;;;;12.23;11.73;;;24.80;54.00;;;;;;3593481;39;20519;-51
2021/05/31 07:20:19;;;;;;;12.33;11.73;;;24.80;53.40;;;;;;3594554;39;20483;-50
2021/05/31 07:22:47;;;;;;;11.70;11.20;;;24.80;53.60;;;;;;3597463;39;20475;-50
2021/05/31 07:25:17;;;;;;;12.40;11.40;;;24.80;53.70;;;;;;3595354;39;20577;-49
2021/05/31 07:27:48;;;;;;;12.93;11.80;;;24.80;53.80;;;;;;3596060;39;20535;-52
2021/05/31 07:30:19;;;;;;;13.37;12.67;;;24.80;53.90;;;;;;3586510;39;20622;-49
2021/05/31 07:32:52;;;;;;;12.10;11.50;;;24.80;54.00;;;;;;3590709;39;20488;-51
2021/05/31 07:35:19;;;;;;;13.70;12.60;;;24.80;54.10;;;;;;3593481;39;20514;-49
2021/05/31 07:37:45;;;;;;;13.33;12.53;;;24.80;54.20;;;;;;3592852;39;20475;-51
2021/05/31 07:40:16;;;;;;;14.27;12.87;;;24.80;54.30;;;;;;3596113;39;20487;-51
2021/05/31 07:42:45;;;;;;;12.30;11.70;;;24.80;54.20;;;;;;3606560;39;20494;-48
2021/05/31 07:45:17;;;;;;;12.63;11.73;;;24.90;54.10;;;;;;3607125;39;20966;-52
2021/05/31 07:47:46;;;;;;;13.80;12.30;;;25.00;54.00;;;;;;3595705;39;20494;-53
2021/05/31 07:50:19;;;;;;;12.80;12.10;;;25.00;53.70;;;;;;3607938;39;20522;-50
2021/05/31 07:52:46;;;;;;;12.40;11.80;;;25.00;51.50;;;;;;3603151;39;21164;-49
2021/05/31 07:55:24;;;;;;;13.60;12.50;;;24.90;52.50;;;;;;3606078;39;20486;-49
2021/05/31 07:57:51;;;;;;;13.30;12.40;;;24.90;52.90;;;;;;3593823;39;20585;-53
2021/05/31 08:00:20;;;;;;;13.47;12.50;;;24.80;53.10;;;;;;3588462;39;20613;-48
2021/05/31 08:02:48;;;;;;;13.30;12.50;;;24.80;53.40;;;;;;3583250;39;21182;-50
2021/05/31 08:05:18;;;;;;;13.57;12.83;;;24.80;53.50;;;;;;3596001;39;20471;-52
2021/05/31 08:07:47;;;;;;;13.87;13.07;;;24.80;53.70;;;;;;3605350;39;20493;-52
2021/05/31 08:10:14;;;;;;;13.60;12.50;;;24.80;53.80;;;;;;3605744;39;20544;-52
2021/05/31 08:12:42;;;;;;;14.20;13.10;;;24.80;53.90;;;;;;3604874;39;21000;-51
2021/05/31 08:15:10;;;;;;;14.40;13.40;;;24.80;54.00;;;;;;3607517;39;20941;-51
2021/05/31 08:17:39;;;;;;;13.33;12.70;;;24.80;54.10;;;;;;3606719;39;20474;-53
2021/05/31 08:20:08;;;;;;;14.27;13.57;;;24.80;54.20;;;;;;3607059;39;20463;-52
2021/05/31 08:22:38;;;;;;;14.43;13.33;;;24.70;54.20;;;;;;3596029;39;20475;-50
2021/05/31 08:25:07;;;;;;;14.00;13.20;;;24.70;54.20;;;;;;3602774;39;20467;-53
2021/05/31 08:27:34;;;;;;;14.10;13.40;;;24.80;54.30;;;;;;3598499;39;20495;-50
2021/05/31 08:30:03;;;;;;;14.10;13.30;;;24.80;54.40;;;;;;3595641;39;20467;-51
2021/05/31 08:32:31;;;;;;;13.87;13.13;;;24.70;54.40;;;;;;3596427;39;20494;-54
2021/05/31 08:34:58;;;;;;;15.43;13.30;;;24.70;54.50;;;;;;3578532;39;21268;-52
2021/05/31 08:37:26;;;;;;;14.80;13.60;;;24.70;54.70;;;;;;3601679;39;20470;-53
2021/05/31 08:39:55;;;;;;;12.63;11.93;;;24.70;54.90;;;;;;3610046;39;20852;-56
2021/05/31 08:42:21;;;;;;;13.60;12.70;;;24.70;55.00;;;;;;3606562;39;20420;-58
2021/05/31 08:44:48;;;;;;;13.33;12.23;;;24.80;55.30;;;;;;3605027;39;20588;-58
2021/05/31 08:47:16;;;;;;;14.80;13.70;;;24.90;55.50;;;;;;3602849;39;20964;-56
2021/05/31 08:49:44;;;;;;;14.73;13.48;;;24.90;55.50;;;;;;3602069;39;20435;-58
2021/05/31 08:52:12;;;;;;;15.23;13.57;;;25.00;55.60;;;;;;3600678;39;20226;-56
2021/05/31 08:54:39;;;;;;;13.17;11.97;;;24.90;55.60;;;;;;3598137;39;20478;-58
2021/05/31 08:57:10;;;;;;;13.53;12.30;;;24.80;55.60;;;;;;3605743;39;20475;-57
2021/05/31 08:59:37;;;;;;;14.23;13.03;;;24.80;55.60;;;;;;3603158;39;20504;-56
2021/05/31 09:02:05;;;;;;;17.20;12.47;;;24.80;55.60;;;;;;3607160;39;20470;-58
2021/05/31 09:04:32;;;;;;;13.07;12.37;;;24.80;55.00;;;;;;3607289;39;20501;-60
2021/05/31 09:07:00;;;;;;;13.37;12.07;;;24.80;55.20;;;;;;3604389;39;20497;-60
2021/05/31 09:09:40;;;;;;;13.07;12.07;;;24.80;55.30;;;;;;3605488;39;20602;-59
2021/05/31 09:12:10;;;;;;;14.57;13.27;;;24.70;55.40;;;;;;3605120;39;20490;-59
2021/05/31 09:14:37;;;;;;;13.50;12.80;;;24.70;55.50;;;;;;3604396;39;20742;-60
2021/05/31 09:17:05;;;;;;;13.60;12.80;;;24.80;55.60;;;;;;3604382;39;20490;-60
2021/05/31 09:19:33;;;;;;;13.43;12.53;;;24.80;55.50;;;;;;3607132;39;20713;-60
2021/05/31 09:22:04;;;;;;;14.00;12.80;;;24.80;55.50;;;;;;3606646;39;20494;-59
2021/05/31 09:24:30;;;;;;;13.20;12.60;;;24.80;55.40;;;;;;3605808;39;20529;-60
2021/05/31 09:27:00;;;;;;;13.27;12.53;;;24.80;55.30;;;;;;3606539;39;20474;-58
2021/05/31 09:29:29;;;;;;;13.00;12.00;;;24.80;55.30;;;;;;3603921;39;20482;-59
2021/05/31 09:32:00;;;;;;;13.50;12.50;;;24.80;55.20;;;;;;3604366;39;20474;-60
2021/05/31 09:34:26;;;;;;;13.50;12.80;;;24.80;55.10;;;;;;3602360;39;20800;-60
2021/05/31 09:36:56;;;;;;;13.57;12.87;;;24.80;55.30;;;;;;3593651;39;20460;-58
2021/05/31 09:39:35;;;;;;;13.17;12.47;;;24.80;57.40;;;;;;3593698;39;20472;-59
2021/05/31 09:42:05;;;;;;;13.17;12.43;;;24.80;58.50;;;;;;3601483;39;20514;-59
2021/05/31 09:44:33;;;;;;;12.60;12.10;;;24.80;57.90;;;;;;3603091;39;20482;-60
2021/05/31 09:46:59;;;;;;;12.77;12.07;;;24.80;58.00;;;;;;3596551;39;20474;-59
2021/05/31 09:49:26;;;;;;;13.20;12.50;;;24.70;57.00;;;;;;3605954;39;20644;-58
2021/05/31 09:52:00;;;;;;;12.77;12.00;;;24.70;56.70;;;;;;3607106;39;20478;-59
2021/05/31 09:54:36;;;;;;;13.73;12.90;;;24.70;56.60;;;;;;3595792;39;20947;-58
2021/05/31 09:57:20;;;;;;;13.27;12.60;;;24.70;56.50;;;;;;3600299;39;20513;-59
2021/05/31 09:59:51;;;;;;;13.73;12.87;;;24.60;56.40;;;;;;3602215;39;20490;-59
2021/05/31 10:02:24;;;;;;;13.30;12.50;;;24.60;56.40;;;;;;3605018;39;20583;-58
2021/05/31 10:04:59;;;;;;;13.00;12.30;;;24.60;56.50;;;;;;3606045;39;20467;-59
2021/05/31 10:07:39;;;;;;;14.07;13.20;;;24.60;56.50;;;;;;3600403;39;20575;-56
2021/05/31 10:10:08;;;;;;;13.90;12.90;;;24.60;56.40;;;;;;3588815;39;20495;-56
2021/05/31 10:12:37;;;;;;;13.20;12.30;;;24.60;56.20;;;;;;3594377;39;20578;-57
2021/05/31 10:15:06;;;;;;;12.60;12.00;;;24.60;56.10;;;;;;3605165;39;20640;-56
2021/05/31 10:17:35;;;;;;;11.90;11.40;;;24.40;51.70;;;;;;3599891;39;20475;-57
2021/05/31 10:20:03;;;;;;;11.17;10.67;;;23.90;50.50;;;;;;3600746;39;20487;-55
2021/05/31 10:22:33;;;;;;;11.77;10.97;;;23.70;49.70;;;;;;3599673;39;20804;-56
2021/05/31 10:25:04;;;;;;;12.53;12.00;;;23.60;50.00;;;;;;3598461;39;20476;-56
2021/05/31 10:27:34;;;;;;;13.50;12.77;;;23.50;49.30;;;;;;3599969;39;20573;-55
2021/05/31 10:30:03;;;;;;;12.30;11.80;;;23.30;49.70;;;;;;3599184;39;20495;-56
2021/05/31 10:32:32;;;;;;;12.30;11.80;;;23.20;49.20;;;;;;3600142;39;20483;-56
2021/05/31 10:34:59;;;;;;;12.53;12.03;;;23.10;49.30;;;;;;3592242;39;20572;-56
2021/05/31 10:37:27;;;;;;;12.13;11.63;;;22.90;49.40;;;;;;3599828;39;21205;-56
2021/05/31 10:40:07;;;;;;;12.37;11.87;;;22.80;49.40;;;;;;3596512;39;20500;-56
2021/05/31 10:42:40;;;;;;;12.30;11.83;;;22.80;49.50;;;;;;3591490;39;21016;-57
2021/05/31 10:45:36;;;;;;;12.10;11.60;;;22.70;49.70;;;;;;3600472;39;20938;-57
2021/05/31 10:48:12;;;;;;;12.57;11.97;;;22.60;50.10;;;;;;3565848;39;20502;-57
2021/05/31 10:50:41;;;;;;;13.10;12.40;;;22.50;49.60;;;;;;3599386;39;20578;-57
2021/05/31 10:53:30;;;;;;;13.13;12.40;;;22.50;49.80;;;;;;3591467;39;20468;-56
2021/05/31 10:55:59;;;;;;;12.93;12.43;;;22.60;49.70;;;;;;3601192;39;20490;-56
2021/05/31 10:58:35;;;;;;;12.50;12.00;;;22.60;49.70;;;;;;3601479;39;20474;-56
2021/05/31 11:01:04;;;;;;;12.80;12.30;;;22.50;49.40;;;;;;3600359;39;20516;-56
2021/05/31 11:03:44;;;;;;;12.83;12.20;;;22.50;49.50;;;;;;3591864;39;20512;-56
2021/05/31 11:06:13;;;;;;;12.33;11.80;;;22.60;49.80;;;;;;3601081;39;20916;-56
2021/05/31 11:08:48;;;;;;;12.00;11.50;;;22.80;50.20;;;;;;3601387;39;20479;-56
2021/05/31 11:11:33;;;;;;;13.00;12.40;;;22.80;50.00;;;;;;3601910;39;20569;-55
2021/05/31 11:14:01;;;;;;;12.33;11.83;;;22.70;49.50;;;;;;3599477;39;20472;-55
2021/05/31 11:16:28;;;;;;;12.00;11.50;;;22.60;50.00;;;;;;3590192;39;20793;-56
2021/05/31 11:18:59;;;;;;;11.53;10.97;;;22.70;50.10;;;;;;3587333;39;20475;-55
2021/05/31 11:21:29;;;;;;;12.30;11.80;;;22.70;50.30;;;;;;3587629;39;20572;-55
2021/05/31 11:24:02;;;;;;;12.30;11.57;;;22.80;50.10;;;;;;3589421;39;20475;-56
2021/05/31 11:26:33;;;;;;;12.43;11.73;;;22.90;50.00;;;;;;3596332;39;20908;-57
2021/05/31 11:29:03;;;;;;;12.07;11.57;;;22.90;50.20;;;;;;3596959;39;20901;-57
2021/05/31 11:31:32;;;;;;;12.17;11.70;;;23.10;50.80;;;;;;3589911;39;20515;-58
2021/05/31 11:34:02;;;;;;;13.97;13.37;;;23.30;51.00;;;;;;3585531;39;20490;-57
2021/05/31 11:36:34;;;;;;;13.23;12.63;;;23.50;51.20;;;;;;3586476;39;20889;-57
2021/05/31 11:39:07;;;;;;;12.90;12.40;;;23.70;51.40;;;;;;3586132;39;20502;-57
2021/05/31 11:41:41;;;;;;;13.17;12.60;;;23.80;51.50;;;;;;3588769;39;20472;-57
2021/05/31 11:44:11;;;;;;;14.37;13.50;;;23.90;51.70;;;;;;3595213;39;20489;-57
2021/05/31 11:46:51;;;;;;;13.03;12.53;;;24.00;51.80;;;;;;3606821;39;21251;-58
2021/05/31 11:49:21;;;;;;;13.83;13.20;;;24.10;52.00;;;;;;3600037;39;20750;-57
2021/05/31 11:52:00;;;;;;;12.93;12.33;;;24.10;52.00;;;;;;3599652;39;20484;-57
2021/05/31 11:54:27;;;;;;;12.80;12.13;;;24.20;52.30;;;;;;3595751;39;20509;-58
2021/05/31 11:56:58;;;;;;;13.93;13.13;;;24.20;52.30;;;;;;3596214;39;20528;-57
2021/05/31 11:59:32;;;;;;;13.90;13.30;;;24.20;52.40;;;;;;3592890;39;21084;-56
2021/05/31 12:01:59;;;;;;;14.20;13.60;;;24.20;52.50;;;;;;3598621;39;20499;-58
2021/05/31 12:04:28;;;;;;;14.80;14.07;;;24.20;52.50;;;;;;3605991;39;20477;-59
2021/05/31 12:07:00;;;;;;;14.10;13.37;;;24.30;52.60;;;;;;3607234;39;20470;-59
2021/05/31 12:09:27;;;;;;;14.00;13.40;;;24.30;52.70;;;;;;3608503;39;20497;-58
2021/05/31 12:11:58;;;;;;;14.60;13.80;;;24.30;52.70;;;;;;3605542;39;20489;-59
2021/05/31 12:14:26;;;;;;;14.63;13.97;;;24.30;52.80;;;;;;3605128;39;20723;-58
2021/05/31 12:16:55;;;;;;;16.57;14.60;;;24.30;52.80;;;;;;3606036;39;20482;-58
2021/05/31 12:19:23;;;;;;;14.50;13.80;;;24.40;52.90;;;;;;3607523;39;20502;-59
2021/05/31 12:21:51;;;;;;;15.83;15.03;;;24.40;53.00;;;;;;3604086;39;20477;-57
2021/05/31 12:24:27;;;;;;;14.43;13.73;;;24.40;53.10;;;;;;3595857;39;20466;-58
2021/05/31 12:26:58;;;;;;;14.57;13.73;;;24.40;53.20;;;;;;3585852;39;20545;-59
2021/05/31 12:29:33;;;;;;;15.93;15.03;;;24.40;53.20;;;;;;3587419;39;20475;-59
2021/05/31 12:32:01;;;;;;;14.97;14.00;;;24.40;53.30;;;;;;3584256;39;20932;-57
2021/05/31 12:34:28;;;;;;;13.60;13.00;;;24.40;53.40;;;;;;3573298;39;20735;-58
2021/05/31 12:36:56;;;;;;;14.87;14.07;;;24.40;53.40;;;;;;3580749;39;20579;-57
2021/05/31 12:39:23;;;;;;;14.70;13.90;;;24.40;53.50;;;;;;3580955;39;20795;-59
2021/05/31 12:41:50;;;;;;;13.60;12.90;;;24.40;53.50;;;;;;3593510;39;20984;-50
2021/05/31 12:44:18;;;;;;;12.60;12.00;;;24.40;53.60;;;;;;3599078;39;20515;-53
2021/05/31 12:46:47;;;;;;;13.50;12.83;;;24.40;52.00;;;;;;3596157;39;21029;-54
2021/05/31 12:49:16;;;;;;;13.20;12.50;;;24.30;52.00;;;;;;3597295;39;20593;-52